sensor_id;sensor_type;location;lat;lon;timestamp;temperature;humidity
837;DHT22;400;53.550;9.932;2024-01-25T00:00:01;8.20;1.00
837;DHT22;400;53.550;9.932;2024-01-25T00:02:28;8.20;1.00
837;DHT22;400;53.550;9.932;2024-01-25T00:04:59;8.10;1.00
837;DHT22;400;53.550;9.932;2024-01-25T00:07:26;8.20;1.00
837;DHT22;400;53.550;9.932;2024-01-25T00:09:52;8.20;1.00
837;DHT22;400;53.550;9.932;2024-01-25T00:12:19;8.10;1.00
837;DHT22;400;53.550;9.932;2024-01-25T00:14:46;8.10;1.00
837;DHT22;400;53.550;9.932;2024-01-25T00:17:13;8.10;1.00
837;DHT22;400;53.550;9.932;2024-01-25T00:19:39;8.00;1.00
837;DHT22;400;53.550;9.932;2024-01-25T00:22:08;8.00;1.00
837;DHT22;400;53.550;9.932;2024-01-25T00:24:34;8.00;1.00
837;DHT22;400;53.550;9.932;2024-01-25T00:27:02;7.90;1.00
837;DHT22;400;53.550;9.932;2024-01-25T00:29:30;8.00;1.00
837;DHT22;400;53.550;9.932;2024-01-25T00:31:57;8.00;1.00
837;DHT22;400;53.550;9.932;2024-01-25T00:34:24;8.00;1.00
837;DHT22;400;53.550;9.932;2024-01-25T00:36:51;8.00;1.00
837;DHT22;400;53.550;9.932;2024-01-25T00:39:21;8.00;1.00
837;DHT22;400;53.550;9.932;2024-01-25T00:41:51;8.00;1.00
837;DHT22;400;53.550;9.932;2024-01-25T00:44:18;8.00;1.00
837;DHT22;400;53.550;9.932;2024-01-25T00:46:45;7.90;1.00
837;DHT22;400;53.550;9.932;2024-01-25T00:49:13;8.00;1.00
837;DHT22;400;53.550;9.932;2024-01-25T00:51:42;8.00;1.00
837;DHT22;400;53.550;9.932;2024-01-25T00:54:12;8.10;1.00
837;DHT22;400;53.550;9.932;2024-01-25T00:56:42;8.10;1.00
837;DHT22;400;53.550;9.932;2024-01-25T00:59:10;8.10;1.00
837;DHT22;400;53.550;9.932;2024-01-25T01:01:37;8.10;1.00
837;DHT22;400;53.550;9.932;2024-01-25T01:04:06;8.10;1.00
837;DHT22;400;53.550;9.932;2024-01-25T01:06:33;8.10;1.00
837;DHT22;400;53.550;9.932;2024-01-25T01:09:01;8.20;1.00
837;DHT22;400;53.550;9.932;2024-01-25T01:11:32;8.10;1.00
837;DHT22;400;53.550;9.932;2024-01-25T01:14:00;8.20;1.00
837;DHT22;400;53.550;9.932;2024-01-25T01:16:27;8.10;1.00
837;DHT22;400;53.550;9.932;2024-01-25T01:18:56;8.10;1.00
837;DHT22;400;53.550;9.932;2024-01-25T01:21:22;8.20;1.00
837;DHT22;400;53.550;9.932;2024-01-25T01:23:50;8.10;1.00
837;DHT22;400;53.550;9.932;2024-01-25T01:26:17;8.10;1.00
837;DHT22;400;53.550;9.932;2024-01-25T01:28:44;8.10;1.00
837;DHT22;400;53.550;9.932;2024-01-25T01:31:12;8.10;1.00
837;DHT22;400;53.550;9.932;2024-01-25T01:33:38;8.10;1.00
837;DHT22;400;53.550;9.932;2024-01-25T01:36:05;8.10;1.00
837;DHT22;400;53.550;9.932;2024-01-25T01:38:32;8.00;1.00
837;DHT22;400;53.550;9.932;2024-01-25T01:40:59;8.00;1.00
837;DHT22;400;53.550;9.932;2024-01-25T01:43:26;8.00;1.00
837;DHT22;400;53.550;9.932;2024-01-25T01:45:54;8.00;1.00
837;DHT22;400;53.550;9.932;2024-01-25T01:48:27;8.00;1.00
837;DHT22;400;53.550;9.932;2024-01-25T01:50:54;8.00;1.00
837;DHT22;400;53.550;9.932;2024-01-25T01:53:21;8.00;1.00
837;DHT22;400;53.550;9.932;2024-01-25T01:55:48;8.00;1.00
837;DHT22;400;53.550;9.932;2024-01-25T01:58:15;8.00;1.00
837;DHT22;400;53.550;9.932;2024-01-25T02:00:42;8.00;1.00
837;DHT22;400;53.550;9.932;2024-01-25T02:03:09;8.00;1.00
837;DHT22;400;53.550;9.932;2024-01-25T02:05:37;7.90;1.00
837;DHT22;400;53.550;9.932;2024-01-25T02:08:05;7.90;1.00
837;DHT22;400;53.550;9.932;2024-01-25T02:10:32;7.90;1.00
837;DHT22;400;53.550;9.932;2024-01-25T02:12:59;8.00;1.00
837;DHT22;400;53.550;9.932;2024-01-25T02:15:26;7.90;1.00
837;DHT22;400;53.550;9.932;2024-01-25T02:17:53;7.90;1.00
837;DHT22;400;53.550;9.932;2024-01-25T02:20:19;7.90;1.00
837;DHT22;400;53.550;9.932;2024-01-25T02:22:48;7.90;1.00
837;DHT22;400;53.550;9.932;2024-01-25T02:25:15;7.90;1.00
837;DHT22;400;53.550;9.932;2024-01-25T02:27:42;7.90;1.00
837;DHT22;400;53.550;9.932;2024-01-25T02:30:09;7.90;1.00
837;DHT22;400;53.550;9.932;2024-01-25T02:32:36;7.90;1.00
837;DHT22;400;53.550;9.932;2024-01-25T02:35:03;8.00;1.00
837;DHT22;400;53.550;9.932;2024-01-25T02:37:30;8.00;1.00
837;DHT22;400;53.550;9.932;2024-01-25T02:39:58;7.90;1.00
837;DHT22;400;53.550;9.932;2024-01-25T02:42:25;8.00;1.00
837;DHT22;400;53.550;9.932;2024-01-25T02:44:52;8.00;1.00
837;DHT22;400;53.550;9.932;2024-01-25T02:47:18;8.00;1.00
837;DHT22;400;53.550;9.932;2024-01-25T02:49:45;8.00;1.00
837;DHT22;400;53.550;9.932;2024-01-25T02:52:12;8.00;1.00
837;DHT22;400;53.550;9.932;2024-01-25T02:54:39;8.00;1.00
837;DHT22;400;53.550;9.932;2024-01-25T02:57:07;8.00;1.00
837;DHT22;400;53.550;9.932;2024-01-25T02:59:34;8.10;1.00
837;DHT22;400;53.550;9.932;2024-01-25T03:02:01;8.00;1.00
837;DHT22;400;53.550;9.932;2024-01-25T03:04:27;8.10;1.00
837;DHT22;400;53.550;9.932;2024-01-25T03:06:54;8.00;1.00
837;DHT22;400;53.550;9.932;2024-01-25T03:09:21;8.00;1.00
837;DHT22;400;53.550;9.932;2024-01-25T03:11:49;8.10;1.00
837;DHT22;400;53.550;9.932;2024-01-25T03:14:18;8.00;1.00
837;DHT22;400;53.550;9.932;2024-01-25T03:16:44;8.00;1.00
837;DHT22;400;53.550;9.932;2024-01-25T03:19:11;8.10;1.00
837;DHT22;400;53.550;9.932;2024-01-25T03:21:38;8.00;1.00
837;DHT22;400;53.550;9.932;2024-01-25T03:24:06;8.10;1.00
837;DHT22;400;53.550;9.932;2024-01-25T03:26:34;8.10;1.00
837;DHT22;400;53.550;9.932;2024-01-25T03:29:02;8.20;1.00
837;DHT22;400;53.550;9.932;2024-01-25T03:31:30;8.20;1.00
837;DHT22;400;53.550;9.932;2024-01-25T03:33:57;8.20;1.00
837;DHT22;400;53.550;9.932;2024-01-25T03:36:23;8.30;1.00
837;DHT22;400;53.550;9.932;2024-01-25T03:38:50;8.20;1.00
837;DHT22;400;53.550;9.932;2024-01-25T03:41:17;8.20;1.00
837;DHT22;400;53.550;9.932;2024-01-25T03:43:44;8.30;1.00
837;DHT22;400;53.550;9.932;2024-01-25T03:46:11;8.30;1.00
837;DHT22;400;53.550;9.932;2024-01-25T03:48:39;8.30;1.00
837;DHT22;400;53.550;9.932;2024-01-25T03:51:06;8.30;1.00
837;DHT22;400;53.550;9.932;2024-01-25T03:53:35;8.30;1.00
837;DHT22;400;53.550;9.932;2024-01-25T03:56:03;8.20;1.00
837;DHT22;400;53.550;9.932;2024-01-25T03:58:29;8.20;1.00
837;DHT22;400;53.550;9.932;2024-01-25T04:00:56;8.10;1.00
837;DHT22;400;53.550;9.932;2024-01-25T04:03:23;8.20;1.00
837;DHT22;400;53.550;9.932;2024-01-25T04:05:51;8.20;1.00
837;DHT22;400;53.550;9.932;2024-01-25T04:08:18;8.30;1.00
837;DHT22;400;53.550;9.932;2024-01-25T04:10:45;8.30;1.00
837;DHT22;400;53.550;9.932;2024-01-25T04:13:12;8.30;1.00
837;DHT22;400;53.550;9.932;2024-01-25T04:15:38;8.30;1.00
837;DHT22;400;53.550;9.932;2024-01-25T04:18:07;8.30;1.00
837;DHT22;400;53.550;9.932;2024-01-25T04:20:34;8.30;1.00
837;DHT22;400;53.550;9.932;2024-01-25T04:23:02;8.30;1.00
837;DHT22;400;53.550;9.932;2024-01-25T04:25:29;8.30;1.00
837;DHT22;400;53.550;9.932;2024-01-25T04:27:56;8.30;1.00
837;DHT22;400;53.550;9.932;2024-01-25T04:30:22;8.20;1.00
837;DHT22;400;53.550;9.932;2024-01-25T04:32:49;8.30;1.00
837;DHT22;400;53.550;9.932;2024-01-25T04:35:16;8.20;1.00
837;DHT22;400;53.550;9.932;2024-01-25T04:37:43;8.30;1.00
837;DHT22;400;53.550;9.932;2024-01-25T04:40:11;8.30;1.00
837;DHT22;400;53.550;9.932;2024-01-25T04:42:38;8.30;1.00
837;DHT22;400;53.550;9.932;2024-01-25T04:45:06;8.30;1.00
837;DHT22;400;53.550;9.932;2024-01-25T04:47:33;8.30;1.00
837;DHT22;400;53.550;9.932;2024-01-25T04:50:00;8.30;1.00
837;DHT22;400;53.550;9.932;2024-01-25T04:52:27;8.20;1.00
837;DHT22;400;53.550;9.932;2024-01-25T04:54:53;8.20;1.00
837;DHT22;400;53.550;9.932;2024-01-25T04:57:22;8.30;1.00
837;DHT22;400;53.550;9.932;2024-01-25T04:59:49;8.30;1.00
837;DHT22;400;53.550;9.932;2024-01-25T05:02:16;8.20;1.00
837;DHT22;400;53.550;9.932;2024-01-25T05:04:43;8.20;1.00
837;DHT22;400;53.550;9.932;2024-01-25T05:07:09;8.20;1.00
837;DHT22;400;53.550;9.932;2024-01-25T05:09:36;8.20;1.00
837;DHT22;400;53.550;9.932;2024-01-25T05:12:04;8.20;1.00
837;DHT22;400;53.550;9.932;2024-01-25T05:14:32;8.20;1.00
837;DHT22;400;53.550;9.932;2024-01-25T05:16:58;8.20;1.00
837;DHT22;400;53.550;9.932;2024-01-25T05:19:25;8.20;1.00
837;DHT22;400;53.550;9.932;2024-01-25T05:21:57;8.10;1.00
837;DHT22;400;53.550;9.932;2024-01-25T05:24:26;8.20;1.00
837;DHT22;400;53.550;9.932;2024-01-25T05:26:53;8.20;1.00
837;DHT22;400;53.550;9.932;2024-01-25T05:29:21;8.20;1.00
837;DHT22;400;53.550;9.932;2024-01-25T05:31:49;8.20;1.00
837;DHT22;400;53.550;9.932;2024-01-25T05:34:16;8.20;1.00
837;DHT22;400;53.550;9.932;2024-01-25T05:36:43;8.20;1.00
837;DHT22;400;53.550;9.932;2024-01-25T05:39:10;8.20;1.00
837;DHT22;400;53.550;9.932;2024-01-25T05:41:43;8.20;1.00
837;DHT22;400;53.550;9.932;2024-01-25T05:44:11;8.20;1.00
837;DHT22;400;53.550;9.932;2024-01-25T05:46:39;8.20;1.00
837;DHT22;400;53.550;9.932;2024-01-25T05:49:07;8.20;1.00
837;DHT22;400;53.550;9.932;2024-01-25T05:51:34;8.20;1.00
837;DHT22;400;53.550;9.932;2024-01-25T05:54:01;8.20;1.00
837;DHT22;400;53.550;9.932;2024-01-25T05:56:28;8.10;1.00
837;DHT22;400;53.550;9.932;2024-01-25T05:58:55;8.20;1.00
837;DHT22;400;53.550;9.932;2024-01-25T06:01:26;8.10;1.00
837;DHT22;400;53.550;9.932;2024-01-25T06:03:54;8.10;1.00
837;DHT22;400;53.550;9.932;2024-01-25T06:06:22;8.10;1.00
837;DHT22;400;53.550;9.932;2024-01-25T06:08:49;8.20;1.00
837;DHT22;400;53.550;9.932;2024-01-25T06:11:15;8.20;1.00
837;DHT22;400;53.550;9.932;2024-01-25T06:13:42;8.10;1.00
837;DHT22;400;53.550;9.932;2024-01-25T06:16:10;8.10;1.00
837;DHT22;400;53.550;9.932;2024-01-25T06:18:37;8.10;1.00
837;DHT22;400;53.550;9.932;2024-01-25T06:21:07;8.20;1.00
837;DHT22;400;53.550;9.932;2024-01-25T06:23:42;8.20;1.00
837;DHT22;400;53.550;9.932;2024-01-25T06:26:15;8.20;1.00
837;DHT22;400;53.550;9.932;2024-01-25T06:28:44;8.20;1.00
837;DHT22;400;53.550;9.932;2024-01-25T06:31:11;8.10;1.00
837;DHT22;400;53.550;9.932;2024-01-25T06:33:39;8.20;1.00
837;DHT22;400;53.550;9.932;2024-01-25T06:36:07;8.10;1.00
837;DHT22;400;53.550;9.932;2024-01-25T06:38:37;8.10;1.00
837;DHT22;400;53.550;9.932;2024-01-25T06:41:05;8.10;1.00
837;DHT22;400;53.550;9.932;2024-01-25T06:43:32;8.10;1.00
837;DHT22;400;53.550;9.932;2024-01-25T06:46:00;8.00;1.00
837;DHT22;400;53.550;9.932;2024-01-25T06:48:29;8.10;1.00
837;DHT22;400;53.550;9.932;2024-01-25T06:50:57;7.90;1.00
837;DHT22;400;53.550;9.932;2024-01-25T06:53:25;7.90;1.00
837;DHT22;400;53.550;9.932;2024-01-25T06:55:55;7.90;1.00
837;DHT22;400;53.550;9.932;2024-01-25T06:58:26;8.00;1.00
837;DHT22;400;53.550;9.932;2024-01-25T07:00:55;7.90;1.00
837;DHT22;400;53.550;9.932;2024-01-25T07:03:22;7.90;1.00
837;DHT22;400;53.550;9.932;2024-01-25T07:05:49;7.90;1.00
837;DHT22;400;53.550;9.932;2024-01-25T07:08:15;8.00;1.00
837;DHT22;400;53.550;9.932;2024-01-25T07:10:45;7.90;1.00
837;DHT22;400;53.550;9.932;2024-01-25T07:13:22;8.00;1.00
837;DHT22;400;53.550;9.932;2024-01-25T07:15:52;7.90;1.00
837;DHT22;400;53.550;9.932;2024-01-25T07:18:23;7.90;1.00
837;DHT22;400;53.550;9.932;2024-01-25T07:20:53;8.00;1.00
837;DHT22;400;53.550;9.932;2024-01-25T07:23:22;8.00;1.00
837;DHT22;400;53.550;9.932;2024-01-25T07:25:50;8.10;1.00
837;DHT22;400;53.550;9.932;2024-01-25T07:28:25;8.20;1.00
837;DHT22;400;53.550;9.932;2024-01-25T07:30:54;8.20;1.00
837;DHT22;400;53.550;9.932;2024-01-25T07:33:23;8.00;1.00
837;DHT22;400;53.550;9.932;2024-01-25T07:35:53;7.90;1.00
837;DHT22;400;53.550;9.932;2024-01-25T07:38:24;7.80;1.00
837;DHT22;400;53.550;9.932;2024-01-25T07:40:53;7.80;1.00
837;DHT22;400;53.550;9.932;2024-01-25T07:43:26;7.90;1.00
837;DHT22;400;53.550;9.932;2024-01-25T07:46:10;7.90;1.00
837;DHT22;400;53.550;9.932;2024-01-25T07:48:41;7.90;1.00
837;DHT22;400;53.550;9.932;2024-01-25T07:51:11;7.90;1.00
837;DHT22;400;53.550;9.932;2024-01-25T07:53:38;7.90;1.00
837;DHT22;400;53.550;9.932;2024-01-25T07:56:07;7.90;1.00
837;DHT22;400;53.550;9.932;2024-01-25T07:58:39;7.90;1.00
837;DHT22;400;53.550;9.932;2024-01-25T08:01:08;7.90;1.00
837;DHT22;400;53.550;9.932;2024-01-25T08:03:45;7.90;1.00
837;DHT22;400;53.550;9.932;2024-01-25T08:06:15;8.00;1.00
837;DHT22;400;53.550;9.932;2024-01-25T08:08:45;8.00;1.00
837;DHT22;400;53.550;9.932;2024-01-25T08:11:12;7.90;1.00
837;DHT22;400;53.550;9.932;2024-01-25T08:13:42;8.00;1.00
837;DHT22;400;53.550;9.932;2024-01-25T08:16:10;8.00;1.00
837;DHT22;400;53.550;9.932;2024-01-25T08:18:37;8.00;1.00
837;DHT22;400;53.550;9.932;2024-01-25T08:21:04;8.00;1.00
837;DHT22;400;53.550;9.932;2024-01-25T08:23:31;8.10;1.00
837;DHT22;400;53.550;9.932;2024-01-25T08:26:02;8.20;1.00
837;DHT22;400;53.550;9.932;2024-01-25T08:28:31;8.20;1.00
837;DHT22;400;53.550;9.932;2024-01-25T08:31:03;8.20;1.00
837;DHT22;400;53.550;9.932;2024-01-25T08:33:36;8.20;1.00
837;DHT22;400;53.550;9.932;2024-01-25T08:36:05;8.20;1.00
837;DHT22;400;53.550;9.932;2024-01-25T08:38:35;8.20;1.00
837;DHT22;400;53.550;9.932;2024-01-25T08:41:05;8.20;1.00
837;DHT22;400;53.550;9.932;2024-01-25T08:43:33;8.30;1.00
837;DHT22;400;53.550;9.932;2024-01-25T08:46:05;8.20;1.00
837;DHT22;400;53.550;9.932;2024-01-25T08:48:32;8.20;1.00
837;DHT22;400;53.550;9.932;2024-01-25T08:50:59;8.20;1.00
837;DHT22;400;53.550;9.932;2024-01-25T08:53:26;8.30;1.00
837;DHT22;400;53.550;9.932;2024-01-25T08:55:54;8.20;1.00
837;DHT22;400;53.550;9.932;2024-01-25T08:58:23;8.20;1.00
837;DHT22;400;53.550;9.932;2024-01-25T09:00:53;8.30;1.00
837;DHT22;400;53.550;9.932;2024-01-25T09:03:24;8.30;1.00
837;DHT22;400;53.550;9.932;2024-01-25T09:05:51;8.20;1.00
837;DHT22;400;53.550;9.932;2024-01-25T09:08:18;8.30;1.00
837;DHT22;400;53.550;9.932;2024-01-25T09:10:45;8.30;1.00
837;DHT22;400;53.550;9.932;2024-01-25T09:13:14;8.10;1.00
837;DHT22;400;53.550;9.932;2024-01-25T09:15:41;8.20;1.00
837;DHT22;400;53.550;9.932;2024-01-25T09:18:10;8.20;1.00
837;DHT22;400;53.550;9.932;2024-01-25T09:20:39;8.20;1.00
837;DHT22;400;53.550;9.932;2024-01-25T09:23:07;8.20;1.00
837;DHT22;400;53.550;9.932;2024-01-25T09:25:37;8.20;1.00
837;DHT22;400;53.550;9.932;2024-01-25T09:28:09;8.30;1.00
837;DHT22;400;53.550;9.932;2024-01-25T09:30:42;8.30;1.00
837;DHT22;400;53.550;9.932;2024-01-25T09:33:14;8.30;1.00
837;DHT22;400;53.550;9.932;2024-01-25T09:35:46;8.30;1.00
837;DHT22;400;53.550;9.932;2024-01-25T09:38:13;8.30;1.00
837;DHT22;400;53.550;9.932;2024-01-25T09:40:40;8.30;1.00
837;DHT22;400;53.550;9.932;2024-01-25T09:43:07;8.40;1.00
837;DHT22;400;53.550;9.932;2024-01-25T09:45:34;8.30;1.00
837;DHT22;400;53.550;9.932;2024-01-25T09:48:01;8.30;1.00
837;DHT22;400;53.550;9.932;2024-01-25T09:50:30;8.30;1.00
837;DHT22;400;53.550;9.932;2024-01-25T09:53:00;8.30;1.00
837;DHT22;400;53.550;9.932;2024-01-25T09:55:29;8.40;1.00
837;DHT22;400;53.550;9.932;2024-01-25T09:57:57;8.30;1.00
837;DHT22;400;53.550;9.932;2024-01-25T10:00:24;8.40;1.00
837;DHT22;400;53.550;9.932;2024-01-25T10:02:53;8.40;1.00
837;DHT22;400;53.550;9.932;2024-01-25T10:05:20;8.40;1.00
837;DHT22;400;53.550;9.932;2024-01-25T10:07:47;8.40;1.00
837;DHT22;400;53.550;9.932;2024-01-25T10:10:15;8.40;1.00
837;DHT22;400;53.550;9.932;2024-01-25T10:12:42;8.40;1.00
837;DHT22;400;53.550;9.932;2024-01-25T10:15:12;8.40;1.00
837;DHT22;400;53.550;9.932;2024-01-25T10:17:43;8.50;1.00
837;DHT22;400;53.550;9.932;2024-01-25T10:20:14;8.50;1.00
837;DHT22;400;53.550;9.932;2024-01-25T10:22:43;8.50;1.00
837;DHT22;400;53.550;9.932;2024-01-25T10:25:12;8.60;1.00
837;DHT22;400;53.550;9.932;2024-01-25T10:27:41;8.60;1.00
837;DHT22;400;53.550;9.932;2024-01-25T10:30:10;8.50;1.00
837;DHT22;400;53.550;9.932;2024-01-25T10:32:38;8.60;1.00
837;DHT22;400;53.550;9.932;2024-01-25T10:35:08;8.50;1.00
837;DHT22;400;53.550;9.932;2024-01-25T10:37:36;8.50;1.00
837;DHT22;400;53.550;9.932;2024-01-25T10:40:10;8.50;1.00
837;DHT22;400;53.550;9.932;2024-01-25T10:42:38;8.50;1.00
837;DHT22;400;53.550;9.932;2024-01-25T10:45:10;8.50;1.00
837;DHT22;400;53.550;9.932;2024-01-25T10:47:42;8.60;1.00
837;DHT22;400;53.550;9.932;2024-01-25T10:50:17;8.60;1.00
837;DHT22;400;53.550;9.932;2024-01-25T10:52:45;8.60;1.00
837;DHT22;400;53.550;9.932;2024-01-25T10:55:13;8.60;1.00
837;DHT22;400;53.550;9.932;2024-01-25T10:57:43;8.60;1.00
837;DHT22;400;53.550;9.932;2024-01-25T11:00:13;8.60;1.00
837;DHT22;400;53.550;9.932;2024-01-25T11:02:41;8.60;1.00
837;DHT22;400;53.550;9.932;2024-01-25T11:05:11;8.60;1.00
837;DHT22;400;53.550;9.932;2024-01-25T11:07:44;8.60;1.00
837;DHT22;400;53.550;9.932;2024-01-25T11:10:16;8.60;1.00
837;DHT22;400;53.550;9.932;2024-01-25T11:12:50;8.60;1.00
837;DHT22;400;53.550;9.932;2024-01-25T11:15:20;8.60;1.00
837;DHT22;400;53.550;9.932;2024-01-25T11:18:00;8.70;1.00
837;DHT22;400;53.550;9.932;2024-01-25T11:20:29;8.70;1.00
837;DHT22;400;53.550;9.932;2024-01-25T11:22:58;8.70;1.00
837;DHT22;400;53.550;9.932;2024-01-25T11:25:30;8.60;1.00
837;DHT22;400;53.550;9.932;2024-01-25T11:28:00;8.70;1.00
837;DHT22;400;53.550;9.932;2024-01-25T11:30:29;8.70;1.00
837;DHT22;400;53.550;9.932;2024-01-25T11:33:05;8.70;1.00
837;DHT22;400;53.550;9.932;2024-01-25T11:35:38;8.80;1.00
837;DHT22;400;53.550;9.932;2024-01-25T11:38:09;8.80;1.00
837;DHT22;400;53.550;9.932;2024-01-25T11:40:36;8.60;1.00
837;DHT22;400;53.550;9.932;2024-01-25T11:43:05;8.70;1.00
837;DHT22;400;53.550;9.932;2024-01-25T11:45:40;8.70;1.00
837;DHT22;400;53.550;9.932;2024-01-25T11:48:09;8.70;1.00
837;DHT22;400;53.550;9.932;2024-01-25T11:50:40;8.70;1.00
837;DHT22;400;53.550;9.932;2024-01-25T11:53:10;8.60;1.00
837;DHT22;400;53.550;9.932;2024-01-25T11:55:39;8.60;1.00
837;DHT22;400;53.550;9.932;2024-01-25T11:58:08;8.70;1.00
837;DHT22;400;53.550;9.932;2024-01-25T12:00:36;8.70;1.00
837;DHT22;400;53.550;9.932;2024-01-25T12:03:05;8.80;1.00
837;DHT22;400;53.550;9.932;2024-01-25T12:05:32;8.80;1.00
837;DHT22;400;53.550;9.932;2024-01-25T12:08:01;8.80;1.00
837;DHT22;400;53.550;9.932;2024-01-25T12:10:40;8.70;1.00
837;DHT22;400;53.550;9.932;2024-01-25T12:13:09;8.80;1.00
837;DHT22;400;53.550;9.932;2024-01-25T12:15:40;8.90;1.00
837;DHT22;400;53.550;9.932;2024-01-25T12:18:15;8.90;1.00
837;DHT22;400;53.550;9.932;2024-01-25T12:20:46;8.80;1.00
837;DHT22;400;53.550;9.932;2024-01-25T12:23:15;8.90;1.00
837;DHT22;400;53.550;9.932;2024-01-25T12:25:49;8.90;1.00
837;DHT22;400;53.550;9.932;2024-01-25T12:28:18;8.90;1.00
837;DHT22;400;53.550;9.932;2024-01-25T12:30:47;9.00;1.00
837;DHT22;400;53.550;9.932;2024-01-25T12:33:17;8.90;1.00
837;DHT22;400;53.550;9.932;2024-01-25T12:35:44;8.90;1.00
837;DHT22;400;53.550;9.932;2024-01-25T12:38:11;8.90;1.00
837;DHT22;400;53.550;9.932;2024-01-25T12:40:38;8.80;1.00
837;DHT22;400;53.550;9.932;2024-01-25T12:43:05;8.80;1.00
837;DHT22;400;53.550;9.932;2024-01-25T12:45:32;8.80;1.00
837;DHT22;400;53.550;9.932;2024-01-25T12:48:00;8.80;1.00
837;DHT22;400;53.550;9.932;2024-01-25T12:50:30;8.80;1.00
837;DHT22;400;53.550;9.932;2024-01-25T12:52:57;8.80;1.00
837;DHT22;400;53.550;9.932;2024-01-25T12:55:25;8.90;1.00
837;DHT22;400;53.550;9.932;2024-01-25T12:57:52;8.80;1.00
837;DHT22;400;53.550;9.932;2024-01-25T13:00:23;8.80;1.00
837;DHT22;400;53.550;9.932;2024-01-25T13:02:54;8.90;1.00
837;DHT22;400;53.550;9.932;2024-01-25T13:05:23;8.90;1.00
837;DHT22;400;53.550;9.932;2024-01-25T13:07:52;8.90;1.00
837;DHT22;400;53.550;9.932;2024-01-25T13:10:19;9.00;1.00
837;DHT22;400;53.550;9.932;2024-01-25T13:12:47;9.00;1.00
837;DHT22;400;53.550;9.932;2024-01-25T13:15:14;9.00;1.00
837;DHT22;400;53.550;9.932;2024-01-25T13:17:41;9.10;1.00
837;DHT22;400;53.550;9.932;2024-01-25T13:20:09;9.20;1.00
837;DHT22;400;53.550;9.932;2024-01-25T13:22:36;9.20;1.00
837;DHT22;400;53.550;9.932;2024-01-25T13:25:05;9.20;1.00
837;DHT22;400;53.550;9.932;2024-01-25T13:27:32;9.20;1.00
837;DHT22;400;53.550;9.932;2024-01-25T13:29:58;9.20;1.00
837;DHT22;400;53.550;9.932;2024-01-25T13:32:25;9.20;1.00
837;DHT22;400;53.550;9.932;2024-01-25T13:34:54;9.20;1.00
837;DHT22;400;53.550;9.932;2024-01-25T13:37:24;9.30;1.00
837;DHT22;400;53.550;9.932;2024-01-25T13:39:57;9.30;1.00
837;DHT22;400;53.550;9.932;2024-01-25T13:42:28;9.40;1.00
837;DHT22;400;53.550;9.932;2024-01-25T13:44:58;9.50;1.00
837;DHT22;400;53.550;9.932;2024-01-25T13:47:31;9.50;1.00
837;DHT22;400;53.550;9.932;2024-01-25T13:50:02;9.60;1.00
837;DHT22;400;53.550;9.932;2024-01-25T13:52:31;9.50;1.00
837;DHT22;400;53.550;9.932;2024-01-25T13:55:01;9.50;1.00
837;DHT22;400;53.550;9.932;2024-01-25T13:57:33;9.50;1.00
837;DHT22;400;53.550;9.932;2024-01-25T14:00:02;9.60;1.00
837;DHT22;400;53.550;9.932;2024-01-25T14:02:29;9.50;1.00
837;DHT22;400;53.550;9.932;2024-01-25T14:04:56;9.70;1.00
837;DHT22;400;53.550;9.932;2024-01-25T14:07:23;9.80;1.00
837;DHT22;400;53.550;9.932;2024-01-25T14:09:50;9.70;1.00
837;DHT22;400;53.550;9.932;2024-01-25T14:12:18;9.80;1.00
837;DHT22;400;53.550;9.932;2024-01-25T14:14:47;9.70;1.00
837;DHT22;400;53.550;9.932;2024-01-25T14:17:15;9.70;1.00
837;DHT22;400;53.550;9.932;2024-01-25T14:19:42;9.80;1.00
837;DHT22;400;53.550;9.932;2024-01-25T14:22:10;9.80;1.00
837;DHT22;400;53.550;9.932;2024-01-25T14:24:38;9.70;1.00
837;DHT22;400;53.550;9.932;2024-01-25T14:27:06;9.70;1.00
837;DHT22;400;53.550;9.932;2024-01-25T14:29:36;9.80;1.00
837;DHT22;400;53.550;9.932;2024-01-25T14:32:10;9.70;1.00
837;DHT22;400;53.550;9.932;2024-01-25T14:34:37;9.80;1.00
837;DHT22;400;53.550;9.932;2024-01-25T14:37:05;9.80;1.00
837;DHT22;400;53.550;9.932;2024-01-25T14:39:32;9.80;1.00
837;DHT22;400;53.550;9.932;2024-01-25T14:42:00;9.70;1.00
837;DHT22;400;53.550;9.932;2024-01-25T14:44:30;9.60;1.00
837;DHT22;400;53.550;9.932;2024-01-25T14:46:57;9.60;1.00
837;DHT22;400;53.550;9.932;2024-01-25T14:49:26;9.60;1.00
837;DHT22;400;53.550;9.932;2024-01-25T14:51:53;9.60;1.00
837;DHT22;400;53.550;9.932;2024-01-25T14:54:20;9.70;1.00
837;DHT22;400;53.550;9.932;2024-01-25T14:56:47;9.80;1.00
837;DHT22;400;53.550;9.932;2024-01-25T14:59:18;9.90;1.00
837;DHT22;400;53.550;9.932;2024-01-25T15:01:50;9.90;1.00
837;DHT22;400;53.550;9.932;2024-01-25T15:04:20;9.80;1.00
837;DHT22;400;53.550;9.932;2024-01-25T15:06:49;9.90;1.00
837;DHT22;400;53.550;9.932;2024-01-25T15:09:16;9.90;1.00
837;DHT22;400;53.550;9.932;2024-01-25T15:11:43;9.90;1.00
837;DHT22;400;53.550;9.932;2024-01-25T15:14:11;9.80;1.00
837;DHT22;400;53.550;9.932;2024-01-25T15:16:41;9.60;1.00
837;DHT22;400;53.550;9.932;2024-01-25T15:19:08;9.50;1.00
837;DHT22;400;53.550;9.932;2024-01-25T15:21:35;9.40;1.00
837;DHT22;400;53.550;9.932;2024-01-25T15:24:04;9.40;1.00
837;DHT22;400;53.550;9.932;2024-01-25T15:26:30;9.30;1.00
837;DHT22;400;53.550;9.932;2024-01-25T15:28:57;9.30;1.00
837;DHT22;400;53.550;9.932;2024-01-25T15:31:24;9.20;1.00
837;DHT22;400;53.550;9.932;2024-01-25T15:33:51;9.20;1.00
837;DHT22;400;53.550;9.932;2024-01-25T15:36:17;9.10;1.00
837;DHT22;400;53.550;9.932;2024-01-25T15:38:46;9.20;1.00
837;DHT22;400;53.550;9.932;2024-01-25T15:41:19;9.10;1.00
837;DHT22;400;53.550;9.932;2024-01-25T15:43:47;9.10;1.00
837;DHT22;400;53.550;9.932;2024-01-25T15:46:15;9.10;1.00
837;DHT22;400;53.550;9.932;2024-01-25T15:48:42;9.10;1.00
837;DHT22;400;53.550;9.932;2024-01-25T15:51:12;9.20;1.00
837;DHT22;400;53.550;9.932;2024-01-25T15:53:39;9.20;1.00
837;DHT22;400;53.550;9.932;2024-01-25T15:56:06;9.20;1.00
837;DHT22;400;53.550;9.932;2024-01-25T15:58:35;9.10;1.00
837;DHT22;400;53.550;9.932;2024-01-25T16:01:02;9.10;1.00
837;DHT22;400;53.550;9.932;2024-01-25T16:03:31;9.20;1.00
837;DHT22;400;53.550;9.932;2024-01-25T16:05:59;9.10;1.00
837;DHT22;400;53.550;9.932;2024-01-25T16:08:27;9.10;1.00
837;DHT22;400;53.550;9.932;2024-01-25T16:10:54;9.10;1.00
837;DHT22;400;53.550;9.932;2024-01-25T16:13:25;9.20;1.00
837;DHT22;400;53.550;9.932;2024-01-25T16:16:00;9.30;1.00
837;DHT22;400;53.550;9.932;2024-01-25T16:18:30;9.30;1.00
837;DHT22;400;53.550;9.932;2024-01-25T16:21:02;9.40;1.00
837;DHT22;400;53.550;9.932;2024-01-25T16:23:34;9.40;1.00
837;DHT22;400;53.550;9.932;2024-01-25T16:26:03;9.40;1.00
837;DHT22;400;53.550;9.932;2024-01-25T16:28:30;9.40;1.00
837;DHT22;400;53.550;9.932;2024-01-25T16:30:58;9.40;1.00
837;DHT22;400;53.550;9.932;2024-01-25T16:33:25;9.20;1.00
837;DHT22;400;53.550;9.932;2024-01-25T16:35:53;9.30;1.00
837;DHT22;400;53.550;9.932;2024-01-25T16:38:21;9.30;1.00
837;DHT22;400;53.550;9.932;2024-01-25T16:40:47;9.30;1.00
837;DHT22;400;53.550;9.932;2024-01-25T16:43:14;9.30;1.00
837;DHT22;400;53.550;9.932;2024-01-25T16:45:41;9.30;1.00
837;DHT22;400;53.550;9.932;2024-01-25T16:48:10;9.30;1.00
837;DHT22;400;53.550;9.932;2024-01-25T16:50:38;9.30;1.00
837;DHT22;400;53.550;9.932;2024-01-25T16:53:05;9.30;1.00
837;DHT22;400;53.550;9.932;2024-01-25T16:55:32;9.40;1.00
837;DHT22;400;53.550;9.932;2024-01-25T16:57:58;9.40;1.00
837;DHT22;400;53.550;9.932;2024-01-25T17:00:26;9.40;1.00
837;DHT22;400;53.550;9.932;2024-01-25T17:02:55;9.40;1.00
837;DHT22;400;53.550;9.932;2024-01-25T17:05:24;9.40;1.00
837;DHT22;400;53.550;9.932;2024-01-25T17:07:52;9.40;1.00
837;DHT22;400;53.550;9.932;2024-01-25T17:10:19;9.30;1.00
837;DHT22;400;53.550;9.932;2024-01-25T17:12:47;9.30;1.00
837;DHT22;400;53.550;9.932;2024-01-25T17:15:14;9.30;1.00